Dearborn Heights, Michigan
Current Conditions -  °F | °C
As of 10:03 AM on Saturday 25 Oct 2014 (Local Time) from KDTW Reporting Station
Haze Haze  
Wind Chill: 55°   Ceiling: 1400
Heat Index: 55°   Visibility: 6mi
Dew Point: 50°   Wind: 12mph
Humidity: 82%   Direction: 230°SW
Pressure: 29.83"   Gusts: NA
Location:  42.33°N, 83.28°W
Report Text: KDTW 251403Z 23010KT 6SM HZ BKN014 BKN200 13/10 A2983 RMK AO2
Loading
Personal Weather Stations






























Interactive Weather Map New forecast layout! Learn more

10-Day Weather Forecast

Advertisements
Track Severe Weather on mobile